Weather observations for the past three days for
Montevideo-Chippewa County Airport
Metric (Imperial)
Date Time (cdt) Wind (kph) Vis. (km) Weather Sky Cond. Temperature (ºC) Relative Humidity Wind Chill (°C) Heat Index (°C) Pressure Precipitation (cm)
Air Dwpt 6 hour altimeter (cm) sea level (mb) 1 hr 3 hr 6 hr
Max. Min.
08 03:15 SW 13 16.09 Fair CLR 8 -4 43% 6 75.62 0.0
08 02:55 SW 13 16.09 Fair CLR 8 -4 43% 6 75.62 0.0
08 02:35 SW 11 16.09 Fair CLR 8 -4 43% 6 75.64 0.0
08 02:15 SW 13 16.09 Fair CLR 8 -4 43% 6 75.64 0.0
08 01:55 SW 17 16.09 Fair CLR 8 -4 43% 6 75.64 0.0
08 01:35 SW 13 16.09 Fair CLR 8 -4 43% 6 75.67 0.0
08 01:15 SW 13 16.09 Fair CLR 8 -3 46% 6 75.67 0.0
08 00:55 S 11 16.09 Fair CLR 7 -4 46% 5 75.67 0.0
08 00:35 S 9 16.09 Fair CLR 8 -4 43% 7 75.67 0.0
08 00:15 S 9 16.09 Fair CLR 9 -4 40% 8 75.67 0.0
07 23:55 S 9 16.09 Fair CLR 9 -4 40% 8 75.69 0.0
07 23:35 S 9 16.09 Fair CLR 9 -4 40% 8 75.69 0.0
07 23:15 S 7 16.09 Fair CLR 9 -4 40% 8 75.72 0.0
07 22:55 SW 7 16.09 Fair CLR 10 -4 37% 9 75.72 0.0
07 22:35 SW 6 16.09 Fair CLR 10 -4 37% 75.72 0.0
07 22:15 SW 6 16.09 Fair CLR 10 -4 37% 75.72 0.0
07 21:55 Calm 16.09 Fair CLR 11 -4 35% 75.72 0.0
07 21:35 Calm 16.09 Fair CLR 11 -4 35% 75.74 0.0
07 21:15 Calm 16.09 Fair CLR 12 -4 33% 75.72 0.0
07 20:55 Calm 16.09 Fair CLR 13 -4 31% 75.72 0.0
07 20:35 NW 6 16.09 Fair CLR 13 -4 31% 75.72 0.0
07 20:15 NW 7 16.09 Fair CLR 14 -4 29% 75.72 0.0
07 19:55 NW 11 16.09 Fair CLR 14 -4 29% 75.69 0.0
07 19:35 NW 17 16.09 Fair CLR 15 -5 25% 75.69 0.0
07 19:15 N 15 16.09 Fair CLR 16 -5 23% 75.69 0.0
07 18:55 NW 15 16.09 Fair CLR 16 -6 22% 75.69 0.0
07 18:35 NW 20 16.09 Fair CLR 16 -5 23% 75.69 0.0
07 18:15 NW 19 16.09 Fair CLR 16 -6 22% 75.72 0.0
07 17:55 N 19 16.09 Fair CLR 16 -6 22% 75.72 0.0
07 17:35 NW 13 16.09 Fair CLR 16 -5 23% 75.72 0.0
07 17:15 NW 22 G 33 16.09 Fair CLR 16 -5 23% 75.72 0.0
07 16:55 NW 26 G 33 16.09 Fair CLR 17 -5 22% 75.72 0.0
07 16:35 NW 26 16.09 Fair CLR 17 -5 22% 75.74 0.0
07 16:15 NW 15 G 33 16.09 Fair CLR 16 -5 23% 75.74 0.0
07 15:55 Calm 16.09 Fair CLR 15 -4 27% 75.77 0.0
07 15:35 W 15 16.09 Fair CLR 16 -4 25% 75.77 0.0
07 15:15 N 19 G 28 16.09 Fair CLR 16 -4 25% 75.79 0.0
07 14:55 NW 22 G 28 16.09 Fair CLR 15 -5 25% 75.79 0.0
07 14:35 NW 15 16.09 Fair CLR 15 -5 25% 75.82 0.0
07 14:15 N 11 16.09 Fair CLR 14 -5 27% 75.82 0.0
07 13:55 W 6 16.09 Fair CLR 14 -4 29% 75.84 0.0
07 13:35 NW 17 G 26 16.09 Fair CLR 14 -4 29% 75.84 0.0
07 13:15 W 11 G 17 16.09 Fair CLR 14 -4 29% 75.87 0.0
07 12:55 N 19 G 28 16.09 Fair CLR 13 -4 31% 75.87 0.0
07 12:35 N 15 16.09 Fair CLR 13 -5 28% 75.9 0.0
07 12:15 N 17 G 26 16.09 Fair CLR 13 -4 31% 75.92 0.0
07 11:55 NW 15 16.09 Fair CLR 13 -4 31% 75.92 0.0
07 11:35 W 9 16.09 Fair CLR 12 -4 33% 75.92 0.0
07 11:15 NW 9 16.09 Fair CLR 12 -5 30% 75.95 0.0
07 10:55 Calm 16.09 Fair CLR 11 -6 30% 75.95 0.0
07 10:35 Calm 16.09 Fair CLR 11 -6 30% 75.95 0.0
07 10:15 E 6 16.09 Fair CLR 11 -6 30% 75.95 0.0
07 09:55 SE 6 16.09 Fair CLR 10 -4 37% 75.95 0.0
07 09:35 S 6 16.09 Fair CLR 9 -4 40% 75.95 0.0
07 09:15 Calm 16.09 Fair CLR 9 -3 43% 75.97 0.0
07 08:55 S 7 16.09 Fair CLR 8 -2 50% 7 75.95 0.0
07 08:35 S 6 16.09 Fair CLR 7 -2 53% 75.95 0.0
07 08:15 S 7 16.09 Fair CLR 6 -3 53% 5 75.95 0.0
07 07:55 S 9 16.09 Fair CLR 6 -2 57% 4 75.95 0.0
07 07:35 S 9 16.09 Fair CLR 4 -2 65% 2 75.95 0.0
07 07:15 Calm 16.09 Fair CLR 2 -3 70% 75.95 0.0
07 06:55 Calm 16.09 Fair CLR 1 -3 75% 75.95 0.0
07 06:35 S 6 16.09 Fair CLR 1 -3 75% 75.95 0.0
07 06:15 Calm 16.09 Fair CLR 1 -3 75% 75.97 0.0
07 05:55 Calm 16.09 Fair CLR 1 -3 75% 75.95 0.0
07 05:35 S 7 16.09 Fair CLR 2 -4 65% 0 75.95 0.0
07 05:15 S 9 16.09 Fair CLR 2 -4 65% -0 75.97 0.0
07 04:55 S 7 16.09 Fair CLR 2 -4 65% 0 75.97 0.0
07 04:35 S 6 16.09 Partly Cloudy SCT070 2 -4 65% 75.97 0.0
07 04:15 S 7 16.09 Mostly Cloudy BKN070 2 -4 65% 0 76 0.0
07 03:55 S 7 16.09 Partly Cloudy SCT070 2 -4 65% 0 76 0.0
07 03:35 S 6 16.09 Partly Cloudy SCT080 2 -4 65% 76.02 0.0
07 03:15 S 7 16.09 Mostly Cloudy SCT080 BKN090 2 -4 65% 0 76.02 0.0
07 02:55 S 6 16.09 Mostly Cloudy BKN090 1 -4 70% 76.02 0.0
07 02:35 S 7 16.09 Partly Cloudy SCT090 SCT110 2 -4 65% 0 76.02 0.0
07 02:15 S 7 16.09 Mostly Cloudy BKN090 BKN110 2 -4 65% 0 76.05 0.0
07 01:55 S 7 16.09 Mostly Cloudy BKN090 1 -4 70% -1 76.05 0.0
07 01:35 S 7 16.09 Partly Cloudy SCT090 1 -3 75% -1 76.07 0.0
07 01:15 SE 7 16.09 Fair CLR 1 -4 70% -1 76.07 0.0
07 00:55 SE 7 16.09 Fair CLR 1 -4 70% -1 76.1 0.0
07 00:35 Calm 16.09 Fair CLR 2 -4 65% 76.1 0.0
07 00:15 Calm 16.09 Fair CLR 2 -5 60% 76.12 0.0
06 23:55 Calm 16.09 Fair CLR 1 -6 60% 76.12 0.0
06 23:35 Calm 16.09 Fair CLR 2 -6 56% 76.15 0.0
06 23:15 Calm 16.09 Fair CLR 2 -6 56% 76.15 0.0
06 22:55 Calm 16.09 Fair CLR 2 -6 56% 76.15 0.0
06 22:35 Calm 16.09 Fair CLR 2 -6 56% 76.15 0.0
06 22:15 Calm 16.09 Fair CLR 3 -6 52% 76.15 0.0
06 21:55 NE 6 16.09 Fair CLR 3 -5 56% 76.15 0.0
06 21:35 NE 6 16.09 Fair CLR 4 -6 48% 76.15 0.0
06 21:15 N 7 16.09 Fair CLR 4 -5 52% 2 76.15 0.0
06 20:55 N 6 16.09 Fair CLR 5 -5 49% 76.12 0.0
06 20:35 N 7 16.09 Fair CLR 6 -5 46% 5 76.12 0.0
06 20:15 N 11 16.09 Fair CLR 7 -4 46% 5 76.12 0.0
06 19:55 NW 15 16.09 Fair CLR 8 -5 40% 6 76.12 0.0
06 19:35 NW 9 16.09 Partly Cloudy SCT080 8 -5 40% 7 76.12 0.0
06 19:15 N 17 16.09 Mostly Cloudy BKN080 8 -5 40% 6 76.15 0.0
06 18:55 N 17 16.09 Mostly Cloudy BKN080 8 -4 43% 6 76.15 0.0
06 18:35 NW 22 16.09 Mostly Cloudy BKN080 8 -5 40% 5 76.15 0.0
06 18:15 NW 19 G 26 16.09 Mostly Cloudy BKN070 9 -5 37% 7 76.17 0.0
06 17:55 NW 17 G 30 16.09 Partly Cloudy SCT070 9 -4 40% 7 76.17 0.0
06 17:35 NW 15 G 31 16.09 Partly Cloudy SCT070 9 -4 40% 7 76.17 0.0
06 17:15 NW 24 G 33 16.09 Partly Cloudy SCT070 9 -4 40% 6 76.2 0.0
06 16:55 NW 15 G 30 16.09 Partly Cloudy SCT070 9 -4 40% 7 76.2 0.0
06 16:35 N 20 G 30 16.09 Partly Cloudy SCT070 8 -4 43% 5 76.2 0.0
06 16:15 W 15 G 28 16.09 Partly Cloudy SCT060 8 -5 40% 6 76.23 0.0
06 15:55 NW 20 G 30 16.09 Mostly Cloudy BKN060 9 -4 40% 6 76.25 0.0
06 15:35 NW 20 16.09 Mostly Cloudy BKN060 8 -4 43% 5 76.25 0.0
06 15:15 NW 17 G 26 16.09 Mostly Cloudy SCT003 BKN060 8 -4 43% 6 76.28 0.0
06 14:55 NW 22 G 30 16.09 Partly Cloudy SCT003 SCT060 8 -5 40% 5 76.28 0.0
06 14:35 NW 19 G 35 16.09 Partly Cloudy SCT003 SCT050 8 -4 43% 5 76.3 0.0
06 14:15 NW 22 G 30 16.09 Mostly Cloudy SCT003 SCT050 BKN055 8 -4 43% 5 76.3 0.0
06 13:55 NW 22 G 30 16.09 Mostly Cloudy SCT003 SCT049 BKN055 7 -4 46% 4 76.3 0.0
06 13:35 NW 20 G 30 16.09 Mostly Cloudy SCT003 BKN047 8 -4 43% 5 76.33 0.0
06 13:15 NW 20 G 28 16.09 Overcast SCT003 OVC047 7 -4 46% 4 76.33 0.0
06 12:55 NW 13 G 28 16.09 Overcast SCT003 OVC049 6 -4 49% 4 76.35 0.0
06 12:35 NW 19 G 30 16.09 Overcast SCT003 OVC049 6 -4 49% 3 76.35 0.0
06 12:15 NW 19 16.09 Overcast SCT003 OVC049 6 -4 49% 3 76.35 0.0
06 11:55 NW 24 G 30 16.09 Overcast SCT003 OVC049 6 -4 49% 2 76.38 0.0
06 11:35 NW 19 G 31 16.09 Overcast BKN003 OVC049 5 -5 49% 2 76.38 0.0
06 11:15 N 22 16.09 Overcast BKN003 OVC048 5 -5 49% 1 76.38 0.0
06 10:55 NW 15 G 26 16.09 Overcast BKN003 OVC048 5 -4 53% 2 76.38 0.0
06 10:35 NW 17 16.09 Overcast SCT003 OVC050 4 -4 56% 1 76.38 0.0
06 10:15 NW 20 G 28 16.09 Mostly Cloudy SCT003 BKN050 4 -4 56% 0 76.35 0.0
06 09:55 NW 15 16.09 Overcast SCT003 OVC050 4 -4 56% 1 76.38 0.0
06 09:35 NW 13 16.09 Overcast SCT003 OVC050 4 -4 56% 1 76.35 0.0
06 09:15 NW 13 16.09 Overcast SCT003 OVC050 4 -3 61% 1 76.38 0.0
06 08:55 NW 11 16.09 Overcast SCT003 OVC050 3 -3 65% 0 76.35 0.0
06 08:35 NW 6 16.09 Overcast SCT003 OVC050 3 -2 70% 76.35 0.0
06 08:15 NW 7 16.09 Overcast SCT003 OVC050 3 -3 65% 1 76.33 0.0
06 07:55 NW 6 16.09 Overcast OVC050 3 -2 70% 76.33 0.0
06 07:35 W 7 16.09 Overcast OVC050 3 -3 65% 1 76.3 0.0
06 07:15 Calm 16.09 Overcast OVC050 3 -3 65% 76.28 0.0
06 06:55 NW 6 16.09 Overcast OVC050 3 -3 65% 76.28 0.0
06 06:35 NW 6 16.09 Overcast OVC050 2 -3 70% 76.25 0.0
06 06:15 NW 6 16.09 Overcast OVC050 2 -3 70% 76.23 0.0
06 05:55 NW 6 16.09 Overcast OVC050 3 -3 65% 76.23 0.0
06 05:35 NW 7 16.09 Overcast OVC050 2 -3 70% 0 76.23 0.0
06 05:15 NW 7 16.09 Overcast OVC050 3 -3 65% 1 76.23 0.0
06 04:55 NW 7 16.09 Overcast OVC050 2 -2 75% 0 76.23 0.0
06 04:35 NW 9 16.09 Overcast OVC060 2 -2 75% -0 76.2 0.0
06 04:15 NW 9 16.09 Overcast OVC060 2 -3 70% -0 76.2 0.0
06 03:55 NW 7 16.09 Overcast OVC060 2 -3 70% 0 76.17 0.0
06 03:35 NW 11 16.09 Overcast OVC060 2 -3 70% -1 76.17 0.0
06 03:15 NW 11 16.09 Overcast OVC060 1 -3 75% -2 76.17 0.0
06 02:55 NW 11 16.09 Overcast OVC060 1 -3 75% -2 76.17 0.0
06 02:35 NW 7 16.09 Partly Cloudy SCT060 1 -4 70% -1 76.17 0.0
06 02:15 NW 7 16.09 Fair CLR 1 -4 70% -1 76.2 0.0
06 01:55 NW 7 16.09 Fair CLR 1 -4 70% -1 76.17 0.0
06 01:35 NW 7 16.09 Fair CLR 2 -4 65% 0 76.17 0.0
06 01:15 NW 6 16.09 Fair CLR 2 -4 65% 76.17 0.0
06 00:55 NW 7 16.09 Partly Cloudy SCT070 2 -4 65% 0 76.17 0.0
06 00:35 NW 7 16.09 Overcast OVC070 2 -4 65% 0 76.17 0.0
06 00:15 NW 7 16.09 Overcast OVC070 3 -4 60% 1 76.17 0.0
05 23:55 N 9 16.09 Overcast OVC070 3 -4 60% 1 76.15 0.0
05 23:35 NW 9 16.09 Overcast OVC080 3 -4 60% 1 76.15 0.0
05 23:15 NW 9 16.09 Overcast OVC080 3 -4 60% 1 76.15 0.0
05 22:55 N 7 16.09 Overcast OVC080 3 -4 60% 1 76.15 0.0
05 22:35 N 9 16.09 Overcast OVC080 3 -4 60% 1 76.12 0.0
05 22:15 N 9 16.09 Mostly Cloudy BKN080 3 -5 56% 1 76.12 0.0
05 21:55 N 11 16.09 Partly Cloudy SCT080 3 -5 56% 0 76.12 0.0
05 21:35 N 11 16.09 Mostly Cloudy BKN080 4 -5 52% 2 76.1 0.0
05 21:15 NW 7 16.09 Fair CLR 4 -5 52% 2 76.07 0.0
05 20:55 N 7 16.09 Partly Cloudy SCT070 5 -5 49% 4 76.05 0.0
05 20:35 N 17 16.09 Mostly Cloudy BKN070 6 -5 46% 3 76.05 0.0
05 20:15 N 20 16.09 Mostly Cloudy SCT060 BKN070 6 -5 46% 3 76.02 0.0
05 19:55 N 20 16.09 Mostly Cloudy SCT060 BKN070 7 -4 46% 4 76.02 0.0
05 19:35 NW 17 G 26 16.09 Mostly Cloudy BKN070 7 -4 46% 4 76 0.0
05 19:15 N 20 16.09 Mostly Cloudy BKN070 8 -4 43% 5 75.97 0.0
05 18:55 N 24 G 31 16.09 Mostly Cloudy BKN070 8 -5 40% 5 75.97 0.0
05 18:35 N 20 G 30 16.09 Partly Cloudy SCT070 8 -4 43% 5 75.97 0.0
05 18:15 N 24 16.09 Partly Cloudy SCT070 SCT080 8 -4 43% 5 75.97 0.0
05 17:55 N 24 G 35 16.09 Partly Cloudy SCT070 SCT075 8 -4 43% 5 75.95 0.0
05 17:35 NW 28 G 37 16.09 Partly Cloudy SCT003 SCT060 SCT080 8 -4 43% 4 75.95 0.0
05 17:15 N 26 G 39 16.09 Partly Cloudy SCT080 9 -4 40% 6 75.95 0.0
05 16:55 NW 28 G 37 16.09 Partly Cloudy SCT060 SCT080 9 -4 40% 6 75.92 0.0
05 16:35 NW 33 16.09 Mostly Cloudy and Breezy BKN060 9 -4 40% 5 75.92 0.0
05 16:15 NW 26 G 35 16.09 Partly Cloudy SCT070 10 -5 35% 7 75.92 0.0
05 15:55 NW 22 G 39 16.09 Partly Cloudy SCT060 SCT080 10 -5 35% 7 75.92 0.0
05 15:35 NW 22 G 35 16.09 Partly Cloudy SCT060 9 -6 34% 6 75.95 0.0
05 15:15 NW 20 G 48 16.09 Partly Cloudy SCT060 9 -5 37% 6 75.92 0.0
05 14:55 NW 30 G 41 16.09 Partly Cloudy SCT070 10 -5 35% 7 75.95 0.0
05 14:35 NW 24 G 37 16.09 Partly Cloudy SCT070 9 -6 34% 6 75.92 0.0
05 14:15 NW 20 G 43 16.09 Partly Cloudy SCT070 10 -6 32% 8 75.92 0.0
05 13:55 NW 28 G 35 16.09 Partly Cloudy SCT070 9 -5 37% 6 75.95 0.0
05 13:35 NW 24 G 35 16.09 Partly Cloudy SCT070 9 -6 34% 6 75.95 0.0
05 13:15 NW 26 16.09 Partly Cloudy SCT070 9 -6 34% 6 75.92 0.0
05 12:55 NW 24 G 35 16.09 Partly Cloudy SCT070 9 -6 34% 6 75.92 0.0
05 12:35 W 24 G 33 16.09 Partly Cloudy SCT060 9 -6 34% 6 75.92 0.0
05 12:15 NW 30 G 37 16.09 Partly Cloudy SCT060 9 -6 34% 6 75.92 0.0
05 11:55 N 26 G 35 16.09 Partly Cloudy SCT060 10 -5 35% 7 75.9 0.0
05 11:35 NW 28 G 37 16.09 Partly Cloudy SCT060 9 -6 34% 6 75.9 0.0
05 11:15 NW 22 G 39 16.09 Partly Cloudy SCT060 9 -5 37% 6 75.9 0.0
05 10:55 N 26 G 37 16.09 Partly Cloudy SCT060 9 -4 40% 6 75.9 0.0
05 10:35 N 28 G 37 16.09 Partly Cloudy SCT049 8 -3 46% 4 75.9 0.0
05 10:15 NW 26 16.09 Fair CLR 9 -4 40% 6 75.9 0.0
05 09:55 NW 26 G 31 16.09 Fair CLR 8 -3 46% 5 75.9 0.0
05 09:35 NW 22 G 30 16.09 Fair CLR 8 -2 50% 5 75.9 0.0
05 09:15 W 13 16.09 Fair CLR 7 -1 57% 5 75.87 0.0
05 08:55 NW 15 16.09 Fair CLR 6 -1 61% 3 75.87 0.0
05 08:35 N 13 16.09 Fair CLR 5 -1 66% 2 75.84 0.0
05 08:15 NW 7 16.09 Fair CLR 4 -1 70% 2 75.84 0.0
05 07:55 NW 6 16.09 Fair CLR 4 -1 70% 75.82 0.0
05 07:35 W 6 16.09 Fair CLR 2 -1 81% 75.82 0.0
05 07:15 W 6 16.09 Fair CLR 2 -2 75% 75.79 0.0
05 06:55 W 7 16.09 Fair CLR 1 -2 81% -1 75.77 0.0
05 06:35 W 7 16.09 Fair CLR 0 -2 87% -2 75.77 0.0
05 06:15 W 7 16.09 Fair CLR 0 -3 80% -2 75.77 0.0
05 05:55 W 9 16.09 Fair CLR 0 -2 87% -3 75.77 0.0
05 05:35 W 7 16.09 Fair CLR 0 -2 87% -2 75.74 0.0
05 05:15 W 7 16.09 Fair CLR 1 -2 81% -1 75.72 0.0
05 04:55 W 9 16.09 Fair CLR 1 -2 81% -2 75.72 0.0
05 04:35 W 7 16.09 Fair CLR 2 -2 75% 0 75.72 0.0
05 04:15 W 9 16.09 Fair CLR 1 -2 81% -2 75.72 0.0
05 03:55 W 7 16.09 Fair CLR 2 -2 75% 0 75.72 0.0
05 03:35 NW 7 16.09 Fair CLR 2 -2 75% 0 75.72 0.0
Date Time (cdt) Wind (kph) Vis. (km) Weather Sky Cond. Air Dwpt Max. Min. Relative Humidity Wind Chill (°C) Heat Index (°C) altimeter (cm) sea level (mb) 1 hr 3 hr 6 hr
6 hour
Temperature (ºC) Pressure Precipitation (cm)